Time;durP1;ratioP1;P1;durP2;ratioP2;P2;SDS_P1;SDS_P2;PMS_P1;PMS_P2;Temp;Humidity;BMP_temperature;BMP_pressure;BME280_temperature;BME280_humidity;BME280_pressure;Samples;Min_cycle;Max_cycle;Signal;HPM_P1;HPM_P2
2021/04/26 00:01:49;;;;;;;4.40;2.80;;;;;;;4.13;49.14;101166.25;10294685;28;20235;-71
2021/04/26 00:06:51;;;;;;;4.50;3.20;;;;;;;3.71;49.76;101164.44;10278228;28;20247;-72
2021/04/26 00:11:54;;;;;;;4.23;2.87;;;;;;;3.63;50.72;101160.34;10271108;28;20235;-71
2021/04/26 00:16:56;;;;;;;3.17;2.80;;;;;;;3.74;50.77;101168.75;10301323;28;20231;-71
2021/04/26 00:21:58;;;;;;;7.67;2.97;;;;;;;3.65;50.73;101162.03;10311919;28;20365;-71
2021/04/26 00:27:01;;;;;;;4.20;3.07;;;;;;;3.39;51.12;101165.69;10310393;28;21501;-73
2021/04/26 00:32:03;;;;;;;4.03;2.97;;;;;;;3.28;51.24;101167.91;10310788;28;20231;-70
2021/04/26 00:37:05;;;;;;;7.60;2.90;;;;;;;3.21;51.45;101164.63;10311245;28;20732;-72
2021/04/26 00:42:08;;;;;;;7.13;3.83;;;;;;;3.04;52.43;101159.06;10311147;28;20722;-72
2021/04/26 00:47:11;;;;;;;4.70;3.30;;;;;;;2.93;53.13;101170.06;10310950;28;20242;-72
2021/04/26 00:52:13;;;;;;;3.83;3.17;;;;;;;2.84;53.55;101162.47;10308942;28;20228;-73
2021/04/26 00:57:16;;;;;;;6.57;3.33;;;;;;;2.91;53.30;101150.72;10310372;28;20242;-73
2021/04/26 01:02:18;;;;;;;8.57;3.80;;;;;;;2.96;53.09;101156.72;10309359;28;20230;-71
2021/04/26 01:07:20;;;;;;;6.40;4.03;;;;;;;2.97;53.08;101152.28;10327626;28;20327;-72
2021/04/26 01:12:49;;;;;;;5.53;3.37;;;;;;;3.00;53.08;101157.47;10308482;28;20241;-72
2021/04/26 01:17:57;;;;;;;5.83;3.33;;;;;;;2.96;53.13;101142.56;10312603;28;20738;-72
2021/04/26 01:23:22;;;;;;;6.70;3.47;;;;;;;2.93;53.23;101145.31;10292268;28;20235;-72
2021/04/26 01:28:36;;;;;;;4.77;3.07;;;;;;;2.96;52.66;101146.09;10266686;28;20235;-72
2021/04/26 01:33:46;;;;;;;5.07;3.30;;;;;;;2.90;52.75;101146.31;10269387;28;20247;-71
2021/04/26 01:38:50;;;;;;;4.53;3.30;;;;;;;2.81;53.01;101155.47;10267306;28;20247;-72
2021/04/26 01:43:53;;;;;;;5.83;3.63;;;;;;;2.75;53.20;101141.59;10283771;28;20247;-72
2021/04/26 01:48:58;;;;;;;5.63;3.47;;;;;;;2.79;53.27;101148.50;10267901;28;20235;-70
2021/04/26 01:54:03;;;;;;;7.10;3.40;;;;;;;2.68;53.42;101143.56;10269910;28;20266;-73
2021/04/26 01:59:06;;;;;;;4.90;3.40;;;;;;;2.53;53.42;101134.38;10266562;28;20318;-71
2021/04/26 02:04:13;;;;;;;4.33;2.73;;;;;;;2.48;53.92;101130.13;10266772;28;20224;-72
2021/04/26 02:09:21;;;;;;;4.87;3.20;;;;;;;2.44;53.74;101139.09;10283175;28;20236;-72
2021/04/26 02:14:28;;;;;;;4.50;3.50;;;;;;;2.35;54.31;101132.34;10276142;28;20571;-71
2021/04/26 02:19:32;;;;;;;4.67;3.60;;;;;;;2.35;54.47;101127.03;10322005;28;20245;-71
2021/04/26 02:24:34;;;;;;;5.53;4.10;;;;;;;2.26;54.82;101130.88;10307460;28;20241;-71
2021/04/26 02:29:36;;;;;;;5.97;3.60;;;;;;;2.18;55.15;101122.31;10304894;28;20245;-73
2021/04/26 02:34:45;;;;;;;5.33;3.30;;;;;;;2.04;55.41;101114.00;10304278;28;20897;-74
2021/04/26 02:39:47;;;;;;;5.37;3.60;;;;;;;1.95;55.73;101108.09;10306304;28;20235;-72
2021/04/26 02:44:51;;;;;;;6.87;4.07;;;;;;;1.86;56.04;101105.72;10303811;28;20254;-71
2021/04/26 02:49:59;;;;;;;4.23;3.40;;;;;;;1.76;56.35;101106.97;10303853;28;20258;-71
2021/04/26 02:55:05;;;;;;;6.63;4.10;;;;;;;1.76;56.73;101111.41;10305484;28;20238;-71
2021/04/26 03:00:09;;;;;;;6.27;3.77;;;;;;;1.66;56.77;101097.56;10306713;28;20260;-72
2021/04/26 03:05:26;;;;;;;4.00;3.60;;;;;;;1.66;57.09;101094.94;10307240;28;20234;-72
2021/04/26 03:10:29;;;;;;;7.97;4.00;;;;;;;1.38;57.33;101087.88;10307218;28;20254;-71
2021/04/26 03:15:33;;;;;;;5.77;3.77;;;;;;;1.21;57.68;101079.59;10289406;28;20253;-72
2021/04/26 03:20:37;;;;;;;6.20;4.43;;;;;;;1.24;57.71;101079.50;10272782;28;20263;-71
2021/04/26 03:25:46;;;;;;;5.67;4.10;;;;;;;1.24;57.88;101074.22;10288195;28;20227;-71
2021/04/26 03:30:48;;;;;;;6.43;4.17;;;;;;;1.12;58.20;101069.28;10280305;28;20309;-71
2021/04/26 03:36:05;;;;;;;6.60;4.43;;;;;;;1.17;58.18;101064.72;10274088;28;20314;-72
2021/04/26 03:41:08;;;;;;;8.17;4.33;;;;;;;1.08;58.27;101065.88;10272044;28;20246;-72
2021/04/26 03:46:10;;;;;;;9.90;4.10;;;;;;;0.92;58.93;101075.19;10272046;28;20236;-72
2021/04/26 03:51:36;;;;;;;7.37;4.07;;;;;;;0.72;59.61;101065.19;10272090;28;20728;-71
2021/04/26 03:57:10;;;;;;;7.27;4.30;;;;;;;0.66;59.75;101065.34;10250210;28;20246;-72
2021/04/26 04:02:12;;;;;;;7.07;4.23;;;;;;;0.66;60.40;101060.06;10270517;28;20236;-73
2021/04/26 04:07:18;;;;;;;7.83;5.40;;;;;;;0.53;60.20;101057.78;10270993;28;20749;-71
2021/04/26 04:12:40;;;;;;;8.20;5.57;;;;;;;0.50;60.25;101055.25;10260794;28;20243;-72
2021/04/26 04:17:46;;;;;;;6.90;5.13;;;;;;;0.63;59.94;101055.72;10305803;28;20235;-72
2021/04/26 04:22:49;;;;;;;6.90;5.00;;;;;;;0.77;59.41;101053.56;10309848;28;20231;-72
2021/04/26 04:27:51;;;;;;;11.47;5.20;;;;;;;0.76;59.53;101049.19;10325321;28;20601;-72
2021/04/26 04:32:55;;;;;;;6.03;4.47;;;;;;;0.83;59.29;101056.03;10310019;28;20242;-71
2021/04/26 04:37:58;;;;;;;5.07;4.53;;;;;;;0.93;59.30;101047.81;10310244;28;20239;-71
2021/04/26 04:43:19;;;;;;;7.87;4.67;;;;;;;1.03;59.21;101044.84;10312154;28;20748;-74
2021/04/26 04:48:27;;;;;;;9.23;5.57;;;;;;;1.19;58.61;101057.59;10333620;28;20275;-74
2021/04/26 04:53:32;;;;;;;7.37;4.50;;;;;;;1.32;58.26;101042.19;10332958;28;21007;-72
2021/04/26 04:58:34;;;;;;;9.00;5.10;;;;;;;1.34;57.85;101041.22;10352577;28;20608;-72
2021/04/26 05:03:36;;;;;;;7.87;5.27;;;;;;;1.44;57.11;101040.00;10336877;28;20368;-73
2021/04/26 05:08:57;;;;;;;8.03;5.87;;;;;;;1.47;57.45;101049.63;10361560;28;20268;-71
2021/04/26 05:14:18;;;;;;;8.47;4.97;;;;;;;1.26;58.47;101048.53;10340589;28;21485;-72
2021/04/26 05:19:20;;;;;;;5.87;4.93;;;;;;;0.88;59.31;101047.06;10322921;28;20890;-71
2021/04/26 05:24:23;;;;;;;8.23;5.23;;;;;;;0.80;59.94;101050.84;10328350;28;20775;-71
2021/04/26 05:29:25;;;;;;;9.70;6.27;;;;;;;1.11;59.75;101049.03;10331019;28;20273;-73
2021/04/26 05:34:29;;;;;;;8.13;5.00;;;;;;;1.37;59.68;101048.19;10345132;28;20238;-73
2021/04/26 05:39:33;;;;;;;13.30;7.60;;;;;;;1.36;60.15;101042.03;10335877;28;20245;-73
2021/04/26 05:44:36;;;;;;;16.67;10.73;;;;;;;1.53;60.19;101043.28;10338803;28;20315;-74
2021/04/26 05:49:58;;;;;;;15.57;9.07;;;;;;;1.89;59.40;101036.75;10355431;28;20390;-75
2021/04/26 05:55:01;;;;;;;12.57;7.10;;;;;;;2.18;58.67;101046.31;10355516;28;20730;-73
2021/04/26 06:00:04;;;;;;;10.97;6.80;;;;;;;2.29;58.49;101040.63;10356073;28;20245;-72
2021/04/26 06:05:14;;;;;;;7.60;5.37;;;;;;;2.80;57.36;101028.19;10315578;28;20309;-73
2021/04/26 06:10:17;;;;;;;7.20;4.27;;;;;;;3.21;55.00;101029.22;10302840;28;20612;-73
2021/04/26 06:15:21;;;;;;;9.50;4.67;;;;;;;3.64;54.86;101037.19;10288123;28;21371;-73
2021/04/26 06:20:22;;;;;;;7.63;4.53;;;;;;;3.95;52.80;101023.50;10310567;28;20230;-74
2021/04/26 06:25:25;;;;;;;6.70;4.23;;;;;;;4.34;52.60;101027.97;10310628;28;21892;-74
2021/04/26 06:30:28;;;;;;;5.47;3.53;;;;;;;4.62;49.54;101019.59;10279960;28;20630;-74
2021/04/26 06:35:30;;;;;;;6.00;3.77;;;;;;;4.93;48.58;101021.69;10232224;28;20235;-73
2021/04/26 06:40:33;;;;;;;4.37;3.67;;;;;;;5.20;47.78;101016.00;10232246;28;20250;-73
2021/04/26 06:45:35;;;;;;;7.90;3.57;;;;;;;5.53;46.14;101009.97;10251193;28;20246;-75
2021/04/26 06:50:38;;;;;;;4.53;3.00;;;;;;;5.67;45.00;101002.97;10267984;28;20239;-75
2021/04/26 06:55:41;;;;;;;8.63;3.60;;;;;;;5.83;44.14;101002.22;10302999;28;20246;-75
2021/04/26 07:00:43;;;;;;;3.70;3.40;;;;;;;6.12;43.43;101003.38;10259290;28;20244;-74
2021/04/26 07:05:45;;;;;;;4.80;3.37;;;;;;;6.33;43.21;100999.53;10271804;28;20239;-75
2021/04/26 07:10:48;;;;;;;3.38;3.08;;;;;;;6.80;42.44;100998.78;10270173;28;20600;-74
2021/04/26 07:15:50;;;;;;;4.40;2.60;;;;;;;7.25;42.84;100998.97;10311193;28;20805;-75
2021/04/26 07:20:52;;;;;;;3.53;2.38;;;;;;;7.69;41.62;100995.50;10347898;28;20249;-74
2021/04/26 07:25:55;;;;;;;4.10;2.70;;;;;;;8.23;38.97;100993.13;10347889;28;20238;-74
2021/04/26 07:30:57;;;;;;;4.07;2.40;;;;;;;8.24;38.76;100985.97;10334103;28;20242;-73
2021/04/26 07:35:59;;;;;;;3.78;2.00;;;;;;;8.34;38.57;100987.97;10295653;28;20806;-73
2021/04/26 07:41:02;;;;;;;5.43;2.72;;;;;;;8.46;37.68;100989.06;10307029;28;20231;-74
2021/04/26 07:46:04;;;;;;;3.58;2.60;;;;;;;8.79;37.07;100991.41;10298249;28;20716;-75
2021/04/26 07:51:07;;;;;;;3.50;2.60;;;;;;;9.05;37.44;100989.75;10285997;28;20751;-74
2021/04/26 07:56:10;;;;;;;3.35;2.25;;;;;;;9.00;35.61;100989.19;10268098;28;20228;-73
2021/04/26 08:01:12;;;;;;;4.47;2.50;;;;;;;9.55;36.90;100982.00;10265822;28;20240;-74
2021/04/26 08:06:16;;;;;;;4.80;2.50;;;;;;;9.68;35.93;100980.19;10274141;28;20754;-73
2021/04/26 08:11:19;;;;;;;3.67;2.40;;;;;;;9.98;34.92;100983.59;10275543;28;20247;-75
2021/04/26 08:16:20;;;;;;;4.10;2.38;;;;;;;10.12;34.10;100976.31;10327950;28;20234;-74
2021/04/26 08:21:27;;;;;;;4.10;2.50;;;;;;;10.51;34.28;100974.47;10356654;28;20265;-73
2021/04/26 08:26:30;;;;;;;3.53;1.90;;;;;;;11.24;34.25;100962.88;10357553;28;20237;-73
2021/04/26 08:31:31;;;;;;;4.85;2.42;;;;;;;11.50;32.01;100962.75;10310649;28;20246;-73
2021/04/26 08:36:34;;;;;;;2.47;2.28;;;;;;;11.72;33.19;100956.59;10313729;28;20231;-74
2021/04/26 08:41:39;;;;;;;3.28;2.30;;;;;;;12.09;31.12;100946.47;10312120;28;20288;-74
2021/04/26 08:46:43;;;;;;;3.50;2.30;;;;;;;12.32;31.71;100944.72;10310414;28;20587;-73
2021/04/26 08:51:46;;;;;;;3.10;2.00;;;;;;;13.02;31.38;100942.66;10312951;28;20790;-73
2021/04/26 08:56:48;;;;;;;3.30;2.20;;;;;;;13.61;29.60;100936.81;10309756;28;20223;-73
2021/04/26 09:01:59;;;;;;;4.80;2.20;;;;;;;14.39;27.41;100942.69;10309056;28;20238;-73
2021/04/26 09:07:03;;;;;;;3.78;2.63;;;;;;;15.62;27.31;100935.13;10311609;28;20234;-74
2021/04/26 09:12:09;;;;;;;4.28;2.15;;;;;;;13.40;27.27;100941.34;10291013;28;20235;-74
2021/04/26 09:17:28;;;;;;;2.85;2.25;;;;;;;13.40;28.50;100930.53;10276580;28;20240;-74
2021/04/26 09:22:45;;;;;;;2.42;2.17;;;;;;;13.91;27.20;100922.53;10238645;28;21822;-74
2021/04/26 09:27:52;;;;;;;2.95;1.95;;;;;;;14.09;27.74;100920.06;10286708;28;20708;-74
2021/04/26 09:33:14;;;;;;;3.15;2.28;;;;;;;13.92;26.90;100918.84;10268979;28;20720;-74
2021/04/26 09:38:24;;;;;;;2.17;1.88;;;;;;;14.09;26.34;100906.56;10271264;28;20236;-74
2021/04/26 09:43:26;;;;;;;2.45;2.25;;;;;;;14.11;27.30;100909.13;10268709;28;20242;-75
2021/04/26 09:48:29;;;;;;;2.40;2.20;;;;;;;14.24;26.46;100901.66;10272025;28;20227;-74
2021/04/26 09:53:33;;;;;;;2.95;2.60;;;;;;;14.24;25.74;100898.09;10270629;28;20251;-74
2021/04/26 09:58:38;;;;;;;3.47;2.20;;;;;;;14.46;27.66;100900.63;10269014;28;20246;-77
2021/04/26 10:03:41;;;;;;;2.20;2.00;;;;;;;15.41;26.46;100891.97;10274566;28;20239;-74
2021/04/26 10:08:47;;;;;;;4.80;2.20;;;;;;;15.74;24.03;100883.50;10290352;28;20615;-75
2021/04/26 10:13:58;;;;;;;3.33;2.30;;;;;;;16.25;26.02;100874.06;10273551;28;20322;-75
2021/04/26 10:19:03;;;;;;;2.72;2.25;;;;;;;16.96;24.49;100873.41;10310558;28;20239;-75
2021/04/26 10:24:14;;;;;;;3.97;1.98;;;;;;;17.33;23.02;100859.66;10307763;28;20227;-75
2021/04/26 10:29:23;;;;;;;3.28;2.30;;;;;;;16.21;23.84;100861.81;10306186;28;20239;-76
2021/04/26 10:34:27;;;;;;;4.47;2.45;;;;;;;16.40;24.18;100853.63;10305277;28;20882;-76
2021/04/26 10:39:31;;;;;;;2.60;2.40;;;;;;;15.03;24.47;100847.66;10305558;28;20728;-76
2021/04/26 10:45:05;;;;;;;2.30;2.03;;;;;;;15.75;24.57;100848.16;10311213;28;20616;-76
2021/04/26 10:50:30;;;;;;;2.30;2.10;;;;;;;15.37;23.87;100832.84;10306946;28;20889;-75
2021/04/26 10:55:54;;;;;;;3.55;2.22;;;;;;;15.44;24.97;100826.72;10312856;28;20234;-75
2021/04/26 11:00:58;;;;;;;4.32;2.40;;;;;;;16.52;24.95;100828.00;10307723;28;20238;-75
2021/04/26 11:06:29;;;;;;;3.83;1.95;;;;;;;17.96;22.75;100800.66;10310872;28;20243;-75
2021/04/26 11:11:37;;;;;;;3.97;2.20;;;;;;;18.35;22.83;100792.88;10306299;28;20231;-75
2021/04/26 11:16:54;;;;;;;4.40;2.70;;;;;;;18.67;21.48;100783.91;10333171;28;20238;-75
2021/04/26 11:22:05;;;;;;;2.40;2.20;;;;;;;18.03;22.09;100771.84;10344952;28;20702;-75
2021/04/26 11:27:41;;;;;;;2.58;2.22;;;;;;;18.71;21.83;100773.56;10345290;28;20246;-75
2021/04/26 11:33:20;;;;;;;2.28;2.10;;;;;;;19.33;21.36;100763.00;10346642;28;20772;-75
2021/04/26 11:38:24;;;;;;;6.10;3.40;;;;;;;18.72;20.78;100759.78;10353386;28;20371;-75
2021/04/26 11:43:26;;;;;;;3.17;2.55;;;;;;;18.96;20.61;100758.97;10351825;28;20253;-75
2021/04/26 11:48:28;;;;;;;2.40;2.20;;;;;;;19.87;19.58;100746.06;10351364;28;20235;-74
2021/04/26 11:53:33;;;;;;;2.88;2.58;;;;;;;20.13;19.27;100737.59;10354130;28;20281;-75
2021/04/26 11:58:35;;;;;;;4.13;2.30;;;;;;;19.58;18.98;100731.19;10351658;28;20246;-75
2021/04/26 12:03:57;;;;;;;3.13;2.33;;;;;;;19.78;18.94;100720.72;10353696;28;20246;-75
2021/04/26 12:09:04;;;;;;;2.20;2.00;;;;;;;20.69;18.22;100710.97;10352179;28;20246;-75
2021/04/26 12:14:09;;;;;;;2.30;2.00;;;;;;;19.48;18.54;100703.25;10344089;28;20755;-75
2021/04/26 12:19:10;;;;;;;3.17;2.35;;;;;;;19.45;19.04;100700.88;10311234;28;20381;-76
2021/04/26 12:24:13;;;;;;;2.60;2.40;;;;;;;18.86;19.89;100690.25;10312093;28;20249;-75
2021/04/26 12:29:24;;;;;;;4.50;2.50;;;;;;;19.46;19.62;100681.63;10310880;28;20239;-74
2021/04/26 12:34:31;;;;;;;3.33;2.30;;;;;;;20.31;20.70;100670.00;10277667;28;21497;-75
2021/04/26 12:39:34;;;;;;;2.65;2.45;;;;;;;21.26;18.16;100665.09;10269605;28;21488;-75
2021/04/26 12:44:36;;;;;;;3.95;3.03;;;;;;;19.61;19.38;100661.84;10269308;28;20235;-75
2021/04/26 12:49:38;;;;;;;3.58;2.90;;;;;;;20.48;19.21;100650.78;10269153;28;20783;-75
2021/04/26 12:55:00;;;;;;;3.70;2.63;;;;;;;19.75;20.31;100652.94;10268933;28;20263;-75
2021/04/26 13:00:04;;;;;;;4.90;3.38;;;;;;;20.30;20.80;100642.88;10270164;28;20247;-75
2021/04/26 13:05:07;;;;;;;3.70;2.78;;;;;;;21.46;20.10;100627.94;10269356;28;20236;-75
2021/04/26 13:10:11;;;;;;;4.07;2.85;;;;;;;21.21;19.29;100630.13;10271750;28;20239;-75
2021/04/26 13:15:28;;;;;;;4.93;2.78;;;;;;;21.11;20.79;100618.63;10302317;28;20226;-75
2021/04/26 13:20:30;;;;;;;4.68;3.47;;;;;;;22.28;19.06;100624.09;10349107;28;20291;-76
2021/04/26 13:25:33;;;;;;;5.45;3.05;;;;;;;21.37;18.87;100610.81;10349872;28;20616;-76
2021/04/26 13:30:35;;;;;;;3.15;2.85;;;;;;;19.89;20.04;100600.38;10348441;28;20237;-75
2021/04/26 13:35:37;;;;;;;6.10;3.45;;;;;;;20.98;20.60;100598.28;10349030;28;20226;-75
2021/04/26 13:40:40;;;;;;;3.70;3.40;;;;;;;20.89;20.11;100593.06;10350070;28;20238;-75
2021/04/26 13:45:42;;;;;;;5.18;3.13;;;;;;;21.34;20.33;100586.59;10352304;28;20730;-76
2021/04/26 13:50:45;;;;;;;5.55;3.75;;;;;;;22.30;19.00;100583.69;10349978;28;20238;-75
2021/04/26 13:55:48;;;;;;;5.22;3.80;;;;;;;22.48;19.03;100569.53;10349285;28;20234;-75
2021/04/26 14:00:50;;;;;;;3.50;3.15;;;;;;;22.18;18.96;100569.69;10347072;28;20591;-76
2021/04/26 14:05:54;;;;;;;3.90;3.22;;;;;;;21.47;19.56;100560.47;10347815;28;20237;-75
2021/04/26 14:10:57;;;;;;;4.20;3.50;;;;;;;19.21;20.66;100552.84;10347166;28;20226;-75
2021/04/26 14:16:00;;;;;;;7.65;3.53;;;;;;;19.56;20.55;100553.41;10325256;28;20675;-75
2021/04/26 14:21:02;;;;;;;5.63;3.55;;;;;;;20.20;19.92;100534.00;10306515;28;20250;-75
2021/04/26 14:26:05;;;;;;;5.88;3.70;;;;;;;20.98;19.08;100534.59;10308574;28;20326;-75
2021/04/26 14:31:07;;;;;;;4.18;3.78;;;;;;;19.14;20.21;100534.66;10306071;28;20238;-75
2021/04/26 14:36:09;;;;;;;4.32;3.05;;;;;;;18.24;21.94;100523.97;10306602;28;20230;-75
2021/04/26 14:41:12;;;;;;;5.72;3.53;;;;;;;20.69;20.20;100508.16;10307887;28;20614;-76
2021/04/26 14:46:14;;;;;;;4.65;3.53;;;;;;;21.60;19.14;100508.72;10336153;28;20242;-75
2021/04/26 14:51:16;;;;;;;4.97;3.65;;;;;;;20.59;18.75;100494.78;10346821;28;20266;-75
2021/04/26 14:56:19;;;;;;;3.83;3.42;;;;;;;18.67;19.31;100491.94;10348270;28;20245;-75
2021/04/26 15:01:21;;;;;;;5.93;3.67;;;;;;;17.74;20.58;100482.34;10346244;28;20249;-76
2021/04/26 15:06:22;;;;;;;7.50;4.22;;;;;;;17.68;20.55;100467.56;10345872;28;20238;-74
2021/04/26 15:11:25;;;;;;;6.32;3.50;;;;;;;19.53;20.75;100463.81;10296704;28;20615;-76
2021/04/26 15:16:27;;;;;;;4.20;3.28;;;;;;;20.17;20.04;100457.19;10338741;28;20246;-76
2021/04/26 15:21:30;;;;;;;4.80;3.22;;;;;;;20.81;19.21;100459.41;10351999;28;20242;-76
2021/04/26 15:26:33;;;;;;;4.88;3.50;;;;;;;20.79;18.83;100457.72;10354851;28;20238;-76
2021/04/26 15:31:35;;;;;;;4.35;3.40;;;;;;;20.38;19.31;100442.84;10352313;28;20285;-76
2021/04/26 15:36:37;;;;;;;5.07;3.70;;;;;;;19.86;20.74;100439.91;10349869;28;20231;-76
2021/04/26 15:41:40;;;;;;;5.22;3.67;;;;;;;19.27;20.49;100436.91;10259527;28;21422;-76
2021/04/26 15:46:42;;;;;;;5.40;3.88;;;;;;;18.26;21.79;100437.66;10271632;28;20235;-76
2021/04/26 15:51:44;;;;;;;5.28;3.70;;;;;;;18.51;21.54;100431.16;10271484;28;20243;-76
2021/04/26 15:56:47;;;;;;;5.03;3.80;;;;;;;18.75;21.96;100424.75;10272452;28;20797;-76
2021/04/26 16:01:49;;;;;;;4.90;3.92;;;;;;;19.02;21.03;100423.44;10237296;28;20240;-76
2021/04/26 16:06:51;;;;;;;4.60;3.97;;;;;;;18.87;21.04;100417.09;10232032;28;20654;-76
2021/04/26 16:11:54;;;;;;;5.32;3.83;;;;;;;19.27;21.09;100411.56;10245626;28;20236;-76
2021/04/26 16:16:56;;;;;;;4.60;3.58;;;;;;;19.75;20.77;100404.94;10245976;28;20237;-76
2021/04/26 16:21:59;;;;;;;6.75;4.13;;;;;;;19.42;21.08;100405.16;10283357;28;20247;-73
2021/04/26 16:27:02;;;;;;;5.57;3.78;;;;;;;18.83;21.38;100406.72;10273584;28;20803;-75
2021/04/26 16:32:05;;;;;;;5.57;3.70;;;;;;;18.34;22.03;100397.69;10307026;28;20629;-74
2021/04/26 16:37:26;;;;;;;4.05;3.63;;;;;;;17.76;22.09;100396.09;10314227;28;20262;-75
2021/04/26 16:42:29;;;;;;;4.97;3.95;;;;;;;18.44;22.63;100375.75;10313141;28;20373;-75
2021/04/26 16:47:31;;;;;;;4.45;3.60;;;;;;;18.55;22.43;100379.97;10265822;28;20243;-74
2021/04/26 16:52:35;;;;;;;4.93;3.90;;;;;;;19.28;21.72;100366.97;10271251;28;20642;-75
2021/04/26 16:57:38;;;;;;;4.07;3.30;;;;;;;19.87;20.99;100369.88;10279360;28;20294;-75
2021/04/26 17:02:40;;;;;;;5.00;3.88;;;;;;;19.53;20.34;100356.72;10272124;28;20239;-75
2021/04/26 17:07:44;;;;;;;5.63;3.67;;;;;;;18.25;22.25;100362.56;10272066;28;20342;-75
2021/04/26 17:12:47;;;;;;;5.80;3.50;;;;;;;18.09;23.12;100366.19;10240347;28;20601;-75
2021/04/26 17:17:48;;;;;;;5.38;3.35;;;;;;;19.79;21.45;100357.19;10304244;28;20238;-75
2021/04/26 17:22:51;;;;;;;5.97;3.97;;;;;;;18.29;22.53;100362.06;10292088;28;20228;-74
2021/04/26 17:27:54;;;;;;;12.95;7.40;;;;;;;17.56;23.49;100351.31;10287335;28;20235;-75
2021/04/26 17:32:56;;;;;;;4.82;3.38;;;;;;;17.68;23.32;100339.06;10273305;28;20618;-74
2021/04/26 17:37:58;;;;;;;4.80;3.88;;;;;;;17.99;23.30;100343.78;10274230;28;20240;-74
2021/04/26 17:43:02;;;;;;;4.30;3.22;;;;;;;16.91;23.81;100336.63;10273443;28;20236;-75
2021/04/26 17:48:05;;;;;;;4.10;3.20;;;;;;;15.50;25.81;100339.84;10272272;28;20240;-75
2021/04/26 17:53:07;;;;;;;5.82;3.55;;;;;;;14.50;26.16;100337.16;10233842;28;20244;-74
2021/04/26 17:58:10;;;;;;;4.88;3.55;;;;;;;14.00;27.47;100339.34;10214504;28;20790;-75
2021/04/26 18:03:13;;;;;;;5.50;3.35;;;;;;;13.47;27.83;100347.00;10232044;28;20267;-74
2021/04/26 18:08:15;;;;;;;6.82;4.07;;;;;;;13.03;28.46;100340.34;10228202;28;20249;-73
2021/04/26 18:13:18;;;;;;;5.50;3.72;;;;;;;12.87;29.41;100346.28;10231791;28;20718;-72
2021/04/26 18:18:19;;;;;;;4.95;3.70;;;;;;;12.33;36.95;100352.94;10327012;28;20246;-73
2021/04/26 18:23:21;;;;;;;6.03;3.75;;;;;;;11.98;36.33;100346.09;10331968;28;20238;-73
2021/04/26 18:28:24;;;;;;;8.38;3.83;;;;;;;11.89;35.42;100358.53;10347115;28;20733;-72
2021/04/26 18:33:26;;;;;;;7.63;4.00;;;;;;;11.67;35.46;100346.09;10350016;28;20711;-75
2021/04/26 18:38:28;;;;;;;4.57;3.97;;;;;;;11.44;34.91;100355.28;10350236;28;20612;-75
2021/04/26 18:43:31;;;;;;;5.82;4.03;;;;;;;11.25;35.01;100361.38;10331033;28;20261;-75
2021/04/26 18:48:34;;;;;;;5.75;4.13;;;;;;;11.13;35.57;100357.88;10334592;28;20249;-73
2021/04/26 18:53:36;;;;;;;7.38;4.40;;;;;;;11.02;35.00;100356.03;10351689;28;20604;-74
2021/04/26 18:58:40;;;;;;;8.00;4.55;;;;;;;11.01;35.74;100357.03;10348459;28;20230;-74
2021/04/26 19:03:42;;;;;;;9.05;4.45;;;;;;;10.90;35.53;100367.81;10296835;28;20246;-74
2021/04/26 19:08:48;;;;;;;9.05;4.60;;;;;;;10.81;35.65;100361.38;10267740;28;20235;-74
2021/04/26 19:13:53;;;;;;;13.25;5.32;;;;;;;10.72;35.49;100369.34;10262518;28;20230;-74
2021/04/26 19:18:55;;;;;;;7.93;4.68;;;;;;;10.71;35.66;100365.78;10287094;28;20251;-74
2021/04/26 19:23:58;;;;;;;6.00;4.30;;;;;;;10.57;35.23;100371.44;10271424;28;20240;-74
2021/04/26 19:29:01;;;;;;;7.28;4.45;;;;;;;10.33;35.95;100369.75;10282069;28;20234;-74
2021/04/26 19:34:03;;;;;;;6.72;4.25;;;;;;;10.14;35.74;100361.47;10262727;28;20243;-75
2021/04/26 19:39:06;;;;;;;6.75;4.47;;;;;;;10.04;36.04;100364.03;10268099;28;20239;-74
2021/04/26 19:44:10;;;;;;;5.35;4.05;;;;;;;9.93;36.64;100362.19;10264909;28;20236;-74
2021/04/26 19:49:12;;;;;;;7.28;4.22;;;;;;;9.77;36.57;100361.66;10264613;28;20251;-74
2021/04/26 19:54:14;;;;;;;7.82;4.75;;;;;;;9.65;36.94;100360.81;10280046;28;20239;-74
2021/04/26 19:59:17;;;;;;;6.38;5.13;;;;;;;9.49;37.16;100365.63;10284565;28;20637;-73
2021/04/26 20:04:19;;;;;;;7.13;5.00;;;;;;;9.34;37.16;100369.47;10296613;28;20246;-75
2021/04/26 20:09:21;;;;;;;8.88;4.82;;;;;;;9.25;37.37;100369.22;10313627;28;20620;-75
2021/04/26 20:14:24;;;;;;;7.15;4.32;;;;;;;9.13;37.48;100366.59;10315245;28;20242;-75
2021/04/26 20:19:26;;;;;;;8.50;4.78;;;;;;;9.05;37.76;100365.34;10314861;28;20231;-75
2021/04/26 20:24:28;;;;;;;10.27;5.13;;;;;;;9.04;38.09;100366.31;10313895;28;20607;-74
2021/04/26 20:29:31;;;;;;;7.20;4.07;;;;;;;8.87;38.13;100366.72;10313563;28;20235;-74
2021/04/26 20:34:32;;;;;;;7.10;4.00;;;;;;;8.93;38.53;100360.91;10315041;28;20238;-74
2021/04/26 20:39:34;;;;;;;9.48;4.57;;;;;;;8.86;38.28;100364.13;10294432;28;20597;-74
2021/04/26 20:44:37;;;;;;;11.40;4.43;;;;;;;8.85;38.25;100355.25;10312781;28;20589;-74
2021/04/26 20:49:40;;;;;;;7.95;5.43;;;;;;;8.74;38.12;100355.19;10314905;28;20239;-75
2021/04/26 20:54:42;;;;;;;9.20;4.70;;;;;;;8.58;38.41;100355.47;10285374;28;20243;-75
2021/04/26 20:59:45;;;;;;;8.88;4.57;;;;;;;8.53;38.63;100346.91;10313168;28;20747;-75
2021/04/26 21:04:47;;;;;;;6.82;4.50;;;;;;;8.37;38.71;100348.00;10314144;28;20235;-75
2021/04/26 21:09:48;;;;;;;6.72;4.55;;;;;;;8.27;38.47;100346.09;10310859;28;20318;-75
2021/04/26 21:14:51;;;;;;;8.15;4.40;;;;;;;8.18;38.60;100342.28;10308982;28;20238;-74
2021/04/26 21:19:53;;;;;;;5.85;4.22;;;;;;;8.16;38.41;100347.72;10308873;28;20744;-75
2021/04/26 21:24:57;;;;;;;7.35;4.93;;;;;;;8.09;38.59;100342.91;10291223;28;20270;-74
2021/04/26 21:30:00;;;;;;;10.77;5.80;;;;;;;7.97;38.46;100335.78;10287604;28;20245;-74
2021/04/26 21:35:02;;;;;;;9.40;6.10;;;;;;;7.85;38.79;100327.66;10275211;28;20632;-74
2021/04/26 21:40:06;;;;;;;9.70;5.53;;;;;;;7.77;38.99;100337.19;10275293;28;20242;-73
2021/04/26 21:45:09;;;;;;;8.07;5.20;;;;;;;7.67;38.63;100334.28;10286527;28;20227;-74
2021/04/26 21:50:12;;;;;;;7.57;4.63;;;;;;;7.64;38.86;100326.47;10270497;28;20744;-74
2021/04/26 21:55:16;;;;;;;6.47;4.68;;;;;;;7.62;38.61;100334.59;10271946;28;20651;-74
2021/04/26 22:00:25;;;;;;;8.60;5.03;;;;;;;7.54;38.67;100322.72;10274293;28;20254;-74
2021/04/26 22:05:27;;;;;;;6.10;4.35;;;;;;;7.45;38.74;100321.56;10271932;28;20606;-73
2021/04/26 22:10:33;;;;;;;7.18;4.75;;;;;;;7.28;39.20;100323.56;10270494;28;20258;-73
2021/04/26 22:15:37;;;;;;;6.28;4.38;;;;;;;7.19;39.17;100323.34;10289267;28;20246;-74
2021/04/26 22:20:40;;;;;;;9.13;4.90;;;;;;;7.10;39.55;100332.81;10312701;28;20619;-73
2021/04/26 22:25:42;;;;;;;6.25;4.45;;;;;;;7.05;39.49;100329.63;10311318;28;20333;-74
2021/04/26 22:30:45;;;;;;;8.68;5.00;;;;;;;6.95;39.85;100336.53;10311117;28;20239;-74
2021/04/26 22:35:55;;;;;;;7.43;4.78;;;;;;;6.85;39.90;100326.41;10311296;28;20616;-74
2021/04/26 22:40:57;;;;;;;7.43;4.72;;;;;;;6.85;39.81;100325.56;10312349;28;20230;-74
2021/04/26 22:46:00;;;;;;;7.95;5.00;;;;;;;6.78;40.05;100327.78;10311675;28;20235;-74
2021/04/26 22:51:02;;;;;;;6.28;5.20;;;;;;;6.63;40.55;100328.78;10310453;28;20239;-73
2021/04/26 22:56:05;;;;;;;8.63;4.97;;;;;;;6.52;40.91;100326.81;10314093;28;20223;-73
2021/04/26 23:01:07;;;;;;;8.90;5.43;;;;;;;6.42;41.49;100322.19;10308360;28;20239;-73
2021/04/26 23:06:10;;;;;;;5.40;4.55;;;;;;;6.33;42.02;100320.97;10293604;28;20231;-73
2021/04/26 23:11:12;;;;;;;7.65;4.78;;;;;;;6.22;42.16;100318.13;10289952;28;20250;-75
2021/04/26 23:16:15;;;;;;;8.00;5.05;;;;;;;6.14;42.27;100315.94;10264867;28;20223;-74
2021/04/26 23:21:17;;;;;;;5.93;4.35;;;;;;;6.05;42.33;100303.22;10267470;28;20246;-74
2021/04/26 23:26:19;;;;;;;6.25;4.53;;;;;;;5.97;42.50;100314.34;10265321;28;20262;-73
2021/04/26 23:31:22;;;;;;;9.98;4.57;;;;;;;5.92;42.56;100304.00;10266494;28;20262;-73